createdAt,value
2018-07-03T00:04:39.232Z,4
2018-07-03T00:15:04.908Z,0
2018-07-03T00:20:17.838Z,0
2018-07-03T00:25:30.585Z,0
2018-07-03T00:30:43.464Z,0
2018-07-03T00:35:56.178Z,0
2018-07-03T00:41:09.069Z,0
2018-07-03T00:46:21.836Z,0
2018-07-03T00:51:34.660Z,0
2018-07-03T00:56:47.525Z,0
2018-07-03T01:02:00.382Z,0
2018-07-03T01:07:13.359Z,0
2018-07-03T01:12:25.998Z,0
2018-07-03T01:17:38.835Z,0
2018-07-03T01:22:51.636Z,0
2018-07-03T01:28:04.539Z,0
2018-07-03T01:33:17.286Z,0
2018-07-03T01:38:30.191Z,0
2018-07-03T01:43:42.993Z,0
2018-07-03T01:48:55.866Z,0
2018-07-03T01:54:08.601Z,0
2018-07-03T01:59:21.439Z,0
2018-07-03T02:04:34.361Z,16
2018-07-03T02:09:47.166Z,16
2018-07-03T02:14:59.985Z,16
2018-07-03T02:20:12.752Z,16
2018-07-03T02:25:25.559Z,12
2018-07-03T02:30:38.531Z,12
2018-07-03T02:35:51.223Z,12
2018-07-03T02:41:04.050Z,12
2018-07-03T02:46:16.898Z,12
2018-07-03T02:51:29.798Z,8
2018-07-03T02:56:42.565Z,8
2018-07-03T03:01:55.387Z,8
2018-07-03T03:07:08.250Z,8
2018-07-03T03:12:21.030Z,8
2018-07-03T03:17:33.855Z,8
2018-07-03T03:22:46.675Z,8
2018-07-03T03:27:59.564Z,12
2018-07-03T03:33:12.336Z,12
2018-07-03T03:38:25.196Z,8
2018-07-03T03:43:38.011Z,12
2018-07-03T03:48:50.811Z,12
2018-07-03T03:54:03.660Z,8
2018-07-03T03:59:16.540Z,8
2018-07-03T04:04:29.306Z,12
2018-07-03T04:09:42.926Z,12
2018-07-03T04:14:54.948Z,12
2018-07-03T04:20:07.785Z,12
2018-07-03T04:25:20.790Z,12
2018-07-03T04:30:33.449Z,12
2018-07-03T04:35:46.369Z,16
2018-07-03T04:40:59.111Z,12
2018-07-03T04:46:12.101Z,16
2018-07-03T04:51:24.808Z,16
2018-07-03T04:56:37.585Z,16
2018-07-03T05:01:50.492Z,16
2018-07-03T05:07:03.267Z,16
2018-07-03T05:12:16.140Z,16
2018-07-03T05:17:28.926Z,20
2018-07-03T05:22:41.852Z,16
2018-07-03T05:27:54.606Z,16
2018-07-03T05:33:07.427Z,20
2018-07-03T05:38:20.336Z,20
2018-07-03T05:43:33.083Z,20
2018-07-03T05:48:45.942Z,20
2018-07-03T05:53:58.798Z,20
2018-07-03T05:59:11.651Z,20
2018-07-03T06:04:24.487Z,20
2018-07-03T06:09:38.537Z,20
2018-07-03T06:14:50.041Z,20
2018-07-03T06:30:28.617Z,24
2018-07-03T06:35:41.414Z,24
2018-07-03T06:40:54.310Z,24
2018-07-03T06:46:07.054Z,24
2018-07-03T06:51:19.927Z,24
2018-07-03T06:56:32.729Z,24
2018-07-03T07:01:45.648Z,24
2018-07-03T07:06:58.386Z,24
2018-07-03T07:12:11.172Z,24
2018-07-03T07:17:24.131Z,28
2018-07-03T07:22:36.867Z,28
2018-07-03T07:27:49.679Z,28
2018-07-03T07:38:15.366Z,24
2018-07-03T07:48:41.025Z,28
2018-07-03T07:53:53.865Z,24
2018-07-03T07:59:06.661Z,24
2018-07-03T08:04:19.520Z,28
2018-07-03T08:09:32.841Z,28
2018-07-03T08:14:45.232Z,28
2018-07-03T08:19:58.021Z,28
2018-07-03T08:25:10.875Z,28
2018-07-03T08:30:23.657Z,24
2018-07-03T08:35:36.468Z,24
2018-07-03T08:40:49.450Z,28
2018-07-03T08:46:02.266Z,28
2018-07-03T08:56:27.792Z,28
2018-07-03T09:01:40.745Z,16
2018-07-03T09:06:53.540Z,16
2018-07-03T09:12:06.290Z,16
2018-07-03T09:17:19.103Z,16
2018-07-03T09:22:32.004Z,16
2018-07-03T09:27:44.837Z,16
2018-07-03T09:32:57.654Z,16
2018-07-03T09:38:10.496Z,16
2018-07-03T09:43:23.320Z,16
2018-07-03T09:48:36.098Z,16
2018-07-03T09:53:48.926Z,16
2018-07-03T09:59:02.184Z,16
2018-07-03T10:04:14.609Z,16
2018-07-03T10:09:27.423Z,16
2018-07-03T10:14:40.720Z,16
2018-07-03T10:19:53.133Z,16
2018-07-03T10:25:06.135Z,16
2018-07-03T10:30:18.824Z,16
2018-07-03T10:35:31.594Z,16
2018-07-03T10:40:44.395Z,16
2018-07-03T10:45:57.230Z,16
2018-07-03T10:51:10.389Z,16
2018-07-03T10:56:22.995Z,16
2018-07-03T11:01:35.765Z,16
2018-07-03T11:06:48.554Z,16
2018-07-03T11:22:27.057Z,20
2018-07-03T11:27:39.887Z,20
2018-07-03T11:32:52.774Z,16
2018-07-03T11:38:05.571Z,16
2018-07-03T11:43:18.371Z,16
2018-07-03T11:48:31.314Z,16
2018-07-03T11:53:44.193Z,16
2018-07-03T11:58:57.267Z,16
2018-07-03T12:04:09.702Z,16
2018-07-03T12:09:23.355Z,16
2018-07-03T12:14:35.371Z,16
2018-07-03T12:19:48.233Z,16
2018-07-03T12:25:01.034Z,16
2018-07-03T12:30:14.145Z,16
2018-07-03T12:35:26.730Z,16
2018-07-03T12:40:39.501Z,16
2018-07-03T12:45:52.579Z,16
2018-07-03T12:51:05.199Z,16
2018-07-03T13:01:30.925Z,16
2018-07-03T13:06:43.722Z,16
2018-07-03T13:11:56.799Z,16
2018-07-03T13:17:09.408Z,16
2018-07-03T13:22:22.340Z,16
2018-07-03T13:27:34.982Z,12
2018-07-03T13:32:47.830Z,16
2018-07-03T13:38:00.672Z,16
2018-07-03T13:43:13.484Z,16
2018-07-03T13:53:39.146Z,16
2018-07-03T13:58:51.974Z,16
2018-07-03T14:04:04.816Z,16
2018-07-03T14:09:17.753Z,16
2018-07-03T14:14:30.468Z,16
2018-07-03T14:19:43.458Z,16
2018-07-03T14:24:56.123Z,16
2018-07-03T14:30:09.007Z,16
2018-07-03T14:35:21.773Z,16
2018-07-03T14:40:34.604Z,16
2018-07-03T14:45:47.456Z,16
2018-07-03T14:51:00.340Z,16
2018-07-03T14:56:13.095Z,20
2018-07-03T15:01:26.052Z,20
2018-07-03T15:06:38.779Z,16
2018-07-03T15:11:51.588Z,16
2018-07-03T15:17:04.488Z,16
2018-07-03T15:27:30.108Z,20
2018-07-03T15:32:42.886Z,20
2018-07-03T15:37:55.778Z,16
2018-07-03T15:43:08.557Z,20
2018-07-03T15:48:21.386Z,16
2018-07-03T15:53:34.274Z,20
2018-07-03T15:58:47.067Z,24
2018-07-03T16:04:00.001Z,20
2018-07-03T16:09:12.871Z,32
2018-07-03T16:14:25.546Z,32
2018-07-03T16:19:38.350Z,32
2018-07-03T16:24:51.170Z,36
2018-07-03T16:30:04.044Z,36
2018-07-03T16:35:16.839Z,36
2018-07-03T16:40:29.735Z,28
2018-07-03T16:56:10.633Z,24
2018-07-03T17:01:20.968Z,28
2018-07-03T17:11:46.638Z,4
2018-07-03T17:16:59.821Z,4
2018-07-03T17:22:12.316Z,4
2018-07-03T17:32:37.997Z,4
2018-07-03T17:37:50.807Z,4
2018-07-03T17:43:03.584Z,4
2018-07-03T17:48:16.424Z,0
2018-07-03T17:53:29.370Z,0
2018-07-03T17:58:42.187Z,4
2018-07-03T18:03:54.917Z,4
2018-07-03T18:14:20.576Z,0
2018-07-03T18:19:33.397Z,0
2018-07-03T18:29:59.126Z,0
2018-07-03T18:40:24.887Z,0
2018-07-03T18:45:37.540Z,0
2018-07-03T18:56:03.240Z,0
2018-07-03T19:01:16.023Z,0
2018-07-03T19:06:28.874Z,0
2018-07-03T19:11:41.663Z,0
2018-07-03T19:16:54.499Z,0
2018-07-03T19:22:07.342Z,0
2018-07-03T19:27:20.157Z,0
2018-07-03T19:32:32.994Z,0
2018-07-03T19:42:58.820Z,0
2018-07-03T19:58:37.134Z,0
2018-07-03T20:03:49.977Z,0
2018-07-03T20:09:02.800Z,0
2018-07-03T20:14:15.670Z,0
2018-07-03T20:19:28.461Z,0
2018-07-03T20:24:41.275Z,0
2018-07-03T20:29:54.162Z,0
2018-07-03T20:35:06.957Z,0
2018-07-03T20:40:19.744Z,0
2018-07-03T20:45:32.584Z,0
2018-07-03T20:50:45.456Z,0
2018-07-03T21:01:11.075Z,0
2018-07-03T21:06:23.940Z,0
2018-07-03T21:27:15.615Z,0
2018-07-03T21:32:28.028Z,0
2018-07-03T21:37:40.847Z,0
2018-07-03T21:42:53.689Z,0
2018-07-03T21:48:06.524Z,0
2018-07-03T21:53:19.343Z,0
2018-07-03T22:03:45.163Z,0
2018-07-03T22:08:57.807Z,0
2018-07-03T22:14:10.860Z,0
2018-07-03T22:24:36.292Z,0
2018-07-03T22:29:49.127Z,0
2018-07-03T22:35:01.996Z,0
2018-07-03T22:40:14.787Z,0
2018-07-03T22:45:27.652Z,0
2018-07-03T22:50:40.546Z,0
2018-07-03T22:55:53.272Z,0
2018-07-03T23:01:06.126Z,0
2018-07-03T23:06:18.928Z,0
2018-07-03T23:11:31.843Z,0
2018-07-03T23:16:44.585Z,0
2018-07-03T23:27:10.280Z,0
2018-07-03T23:32:23.557Z,0
2018-07-03T23:37:35.933Z,0
2018-07-03T23:42:48.755Z,0
2018-07-03T23:48:01.670Z,0
2018-07-03T23:53:14.509Z,0
2018-07-03T23:58:27.233Z,0
